Latest Weather Observations for Fortescue Dave Forrest

IDW60801

Issued at 9:14 am WST Thursday 1 October 2020 (issued every 10 minutes, with the page automatically refreshed every 10 minutes)

About weather observations | Map of weather stations | Latest weather observations for WA | Other Formats
Station Details ID: 505056 Name: FORTESCUE DAVE FORREST Lat: -22.29 Lon: 119.43 Height: 474.6 m
Data from the previous 72 hours. | See also: Recent months for locations in Western Australia
Date/Time
WST
Temp
°C
App
Temp
°C
Dew
Point
°C
Rel
Hum
%
Delta-T
°C
Wind Press
QNH
hPa
Press
MSL
hPa
Rain since
9am
mm
Dir  Spd
km/h
Gust
km/h
Spd
kts
Gust
kts
01/09:00am 30.6 27.2 1.9 16 14.5 ESE 9 13 5 7 1016.0 1013.0 0.0
01/08:30am 29.6 26.7 2.8 18 13.7 SSE 7 11 4 6 1016.0 1013.0 0.0
01/08:00am 27.1 24.8 2.9 21 12.2 ESE 4 7 2 4 1015.9 1012.9 0.0
01/07:30am 24.6 21.9 2.7 24 10.8 ESE 6 7 3 4 1015.8 1013.7 0.0
01/07:00am 23.0 20.7 2.5 26 10.0 ESE 4 6 2 3 1015.4 1013.4 0.0
01/06:30am 19.8 17.9 2.6 32 8.2 SSE 2 4 1 2 1015.0 1013.0 0.0
01/06:00am 18.9 16.6 2.7 34 7.7 SSW 4 4 2 2 1014.7 1012.7 0.0
01/05:30am 19.1 16.8 2.9 34 7.7 SSW 4 6 2 3 1014.4 1012.4 0.0
01/05:00am 19.8 17.9 3.1 33 8.0 S 2 4 1 2 1014.1 1012.0 0.0
01/04:30am 21.8 20.3 3.0 29 9.2 CALM 0 2 0 1 1013.9 1011.8 0.0
01/04:00am 22.1 20.3 3.3 29 9.2 N 2 4 1 2 1013.7 1011.6 0.0
01/03:30am 22.9 20.7 3.4 28 9.6 NNW 4 4 2 2 1013.6 1011.5 0.0
01/03:00am 22.5 20.2 2.6 27 9.7 NW 4 6 2 3 1013.7 1011.6 0.0
01/02:30am 24.2 21.4 2.9 25 10.5 NW 7 13 4 7 1013.8 1011.7 0.0
01/02:00am 24.4 21.5 2.5 24 10.8 WNW 7 13 4 7 1013.9 1011.8 0.0
01/01:30am 25.0 21.8 3.0 24 11.0 WNW 9 13 5 7 1014.1 1012.0 0.0
01/01:00am 24.9 20.9 3.0 24 10.9 NW 13 15 7 8 1014.3 1012.3 0.0
01/12:30am 26.7 21.8 1.9 20 12.2 NW 17 26 9 14 1014.5 1012.5 0.0
01/12:00am 26.8 22.0 -2.9 14 13.5 ENE 13 17 7 9 1014.1 1012.0 0.0
 
Date/Time
WST
Temp
°C
App
Temp
°C
Dew
Point
°C
Rel
Hum
%
Delta-T
°C
Wind Press
QNH
hPa
Press
MSL
hPa
Rain since
9am
mm
Dir  Spd
km/h
Gust
km/h
Spd
kts
Gust
kts
30/11:30pm 27.0 22.1 -3.7 13 13.7 E 13 17 7 9 1014.1 1012.0 0.0
30/11:00pm 24.9 21.4 -2.6 16 12.3 ENE 6 11 3 6 1014.5 1012.5 0.0
30/10:30pm 24.8 22.2 -1.9 17 12.1 ENE 2 6 1 3 1014.8 1012.8 0.0
30/10:00pm 24.8 21.4 -1.9 17 12.1 E 6 7 3 4 1015.0 1013.0 0.0
30/09:30pm 24.4 21.7 -2.2 17 12.0 ENE 2 6 1 3 1015.0 1013.0 0.0
30/09:00pm 25.9 22.8 -2.7 15 12.9 NE 4 4 2 2 1014.8 1012.8 0.0
30/08:30pm 27.2 24.5 -2.6 14 13.6 NE 2 4 1 2 1014.6 1012.6 0.0
30/08:00pm 28.0 24.5 -3.0 13 14.2 SSE 6 7 3 4 1014.3 1012.3 0.0
30/07:30pm 28.9 25.7 -3.3 12 14.7 SE 4 7 2 4 1014.0 1011.9 0.0
30/07:00pm 31.2 27.0 -4.0 10 16.2 SE 9 9 5 5 1013.7 1011.6 0.0
30/06:30pm 31.5 27.3 -3.8 10 16.3 SSE 9 11 5 6 1013.3 1011.3 0.0
30/06:00pm 32.4 28.3 -3.1 10 16.7 SSE 9 11 5 6 1012.9 1010.9 0.0
30/05:30pm 33.6 29.4 -3.6 9 17.5 SE 9 13 5 7 1012.6 1010.6 0.0
30/05:00pm 34.2 29.3 -3.2 9 17.8 ESE 13 20 7 11 1012.4 1010.4 0.0
30/04:30pm 35.1 30.7 -2.5 9 18.2 SSE 11 19 6 10 1012.3 1010.2 0.0
30/04:00pm 34.7 30.6 -2.8 9 18.1 S 9 19 5 10 1012.2 1010.1 0.0
30/03:30pm 35.0 31.5 -2.6 9 18.2 ENE 6 13 3 7 1012.3 1010.2 0.0
30/03:00pm 35.1 31.6 -2.5 9 18.2 E 6 9 3 5 1012.3 1010.2 0.0
30/02:30pm 35.4 30.3 -2.3 9 18.4 E 15 22 8 12 1012.5 1010.5 0.0
30/02:00pm 34.3 30.4 -1.7 10 17.6 SSW 9 17 5 9 1012.8 1010.8 0.0
30/01:30pm 34.3 30.4 -1.7 10 17.6 NE 9 20 5 11 1013.3 1011.3 0.0
30/01:00pm 34.0 29.7 -1.9 10 17.5 NNE 11 20 6 11 1013.8 1011.7 0.0
30/12:30pm 33.7 29.1 -0.8 11 17.0 ENE 13 28 7 15 1014.3 1012.3 0.0
30/12:00pm 33.6 29.8 -0.9 11 17.0 ESE 9 20 5 11 1014.8 1012.8 0.0
30/11:30am 32.9 27.7 -0.2 12 16.4 ENE 17 28 9 15 1015.4 1013.4 0.0
30/11:00am 32.1 26.8 -0.9 12 16.1 E 17 30 9 16 1015.9 1013.8 0.0
30/10:30am 31.7 26.1 -0.1 13 15.7 E 19 32 10 17 1016.2 1014.2 0.0
30/10:00am 30.8 25.6 0.2 14 15.1 ESE 17 26 9 14 1016.6 1014.6 0.0
30/09:30am 30.4 24.9 0.9 15 14.7 ESE 19 26 10 14 1016.9 1014.9 0.0
30/09:00am 28.4 23.2 0.2 16 13.7 ESE 17 24 9 13 1016.9 1014.9 0.0
30/08:30am 25.8 21.2 -1.1 17 12.5 ESE 13 20 7 11 1017.0 1015.0 0.0
30/08:00am 24.2 19.9 -1.6 18 11.7 SE 11 17 6 9 1016.9 1014.9 0.0
30/07:30am 22.6 18.2 -2.2 19 11.0 ESE 11 17 6 9 1016.7 1014.7 0.0
30/07:00am 21.0 16.9 -2.8 20 10.3 ESE 9 13 5 7 1016.3 1014.3 0.0
30/06:30am 19.4 16.3 -2.8 22 9.5 SE 4 6 2 3 1016.0 1013.9 0.0
30/06:00am 18.7 15.5 -3.4 22 9.2 ESE 4 6 2 3 1015.9 1013.8 0.0
30/05:30am 18.7 14.9 -3.4 22 9.2 SE 7 9 4 5 1015.4 1013.4 0.0
30/05:00am 19.4 15.6 -3.5 21 9.6 SE 7 9 4 5 1015.3 1013.3 0.0
30/04:30am 18.9 16.0 -3.9 21 9.5 NNE 2 6 1 3 1014.9 1012.9 0.0
30/04:00am 19.3 15.1 -3.5 21 9.6 SSE 9 17 5 9 1014.8 1012.8 0.0
30/03:30am 18.8 15.0 -4.0 21 9.4 SSE 7 9 4 5 1014.5 1012.5 0.0
30/03:00am 19.3 14.8 -3.5 21 9.6 SSE 11 15 6 8 1014.3 1012.3 0.0
30/02:30am 20.0 15.1 -3.0 21 9.8 S 13 17 7 9 1014.2 1012.1 0.0
30/02:00am 21.2 16.7 -3.3 19 10.5 SSE 11 13 6 7 1014.3 1012.3 0.0
30/01:30am 21.5 17.3 -3.8 18 10.8 SSE 9 13 5 7 1014.3 1012.3 0.0
30/01:00am 22.9 18.0 -3.4 17 11.4 SSE 13 17 7 9 1014.6 1012.6 0.0
30/12:30am 23.5 18.9 -3.7 16 11.8 SE 11 15 6 8 1014.8 1012.8 0.0
30/12:00am 23.4 20.2 -3.8 16 11.8 ESE 4 7 2 4 1014.9 1012.9 0.0
 
Date/Time
WST
Temp
°C
App
Temp
°C
Dew
Point
°C
Rel
Hum
%
Delta-T
°C
Wind Press
QNH
hPa
Press
MSL
hPa
Rain since
9am
mm
Dir  Spd
km/h
Gust
km/h
Spd
kts
Gust
kts
29/11:30pm 23.7 20.5 -3.6 16 11.9 SE 4 7 2 4 1015.1 1013.1 0.0
29/11:00pm 24.2 20.6 -4.0 15 12.3 ESE 6 9 3 5 1015.3 1013.3 0.0
29/10:30pm 25.1 20.9 -4.2 14 12.8 SE 9 11 5 6 1015.4 1013.4 0.0
29/10:00pm 24.4 20.8 -3.9 15 12.3 SE 6 7 3 4 1015.7 1013.6 0.0
29/09:30pm 23.7 21.1 -2.0 18 11.6 ESE 2 6 1 3 1015.8 1013.7 0.0
29/09:00pm 23.7 21.1 -2.0 18 11.5 ENE 2 4 1 2 1015.8 1013.7 0.0
29/08:30pm 25.3 22.7 -1.5 17 12.3 ENE 2 6 1 3 1015.5 1013.5 0.0
29/08:00pm 26.4 23.3 -2.3 15 13.1 ESE 4 4 2 2 1015.3 1013.3 0.0
29/07:30pm 27.8 24.4 -2.1 14 13.9 ESE 6 6 3 3 1015.2 1013.2 0.0
29/07:00pm 28.6 24.9 -2.5 13 14.4 SE 7 9 4 5 1014.7 1012.7 0.0
29/06:30pm 29.2 25.2 -2.0 13 14.6 E 9 11 5 6 1014.5 1012.5 0.0
29/06:00pm 31.0 26.9 -2.9 11 15.9 ESE 9 13 5 7 1014.1 1012.0 0.0
29/05:30pm 32.2 28.5 -3.2 10 16.6 SE 7 13 4 7 1013.8 1011.7 0.0
29/05:00pm 32.9 28.8 -2.7 10 17.0 SE 9 20 5 11 1013.5 1011.4 0.0
29/04:30pm 33.3 29.7 -2.4 10 17.1 SSE 7 15 4 8 1013.3 1011.3 0.0
29/04:00pm 32.8 28.9 -1.5 11 16.7 W 9 20 5 11 1013.3 1011.3 0.0
29/03:30pm 33.6 29.0 -0.9 11 17.0 S 13 22 7 12 1013.5 1011.4 0.0
29/03:00pm 32.5 28.2 -1.7 11 16.5 E 11 17 6 9 1013.5 1011.4 0.0
29/02:30pm 32.7 28.9 -0.4 12 16.3 WSW 9 19 5 10 1013.8 1011.7 0.0
29/02:00pm 33.1 29.2 -1.3 11 16.8 SSE 9 19 5 10 1014.0 1011.9 0.0
29/01:30pm 33.2 30.1 0.0 12 16.6 N 6 15 3 8 1014.3 1012.3 0.0
29/01:00pm 31.6 27.5 -0.1 13 15.6 S 11 22 6 12 1014.7 1012.7 0.0
29/12:30pm 31.7 27.2 -0.1 13 15.7 ESE 13 24 7 13 1015.0 1013.0 0.0
29/12:00pm 30.8 26.8 0.2 14 15.1 ESE 11 20 6 11 1015.5 1013.5 0.0
29/11:30am 30.5 25.4 1.0 15 14.7 ESE 17 30 9 16 1016.1 1014.0 0.0
29/11:00am 29.6 24.0 1.1 16 14.1 ESE 20 28 11 15 1016.5 1014.5 0.0
29/10:30am 29.0 23.3 0.7 16 13.9 SE 20 39 11 21 1017.0 1015.0 0.0
29/10:00am 28.4 21.9 0.2 16 13.7 SE 24 33 13 18 1017.2 1015.2 0.0
29/09:30am 27.3 20.8 0.1 17 13.1 SE 24 37 13 20 1017.6 1015.6 0.0
29/09:00am 26.3 19.4 0.1 18 12.5 SE 26 35 14 19 1017.8 1015.8 0.0
29/08:30am 25.4 18.1 0.1 19 12.0 SE 28 37 15 20 1018.0 1015.9 0.0
29/08:00am 24.2 17.4 0.5 21 11.2 SSE 26 37 14 20 1017.8 1015.8 0.0
29/07:30am 22.5 17.0 0.4 23 10.3 SSE 19 32 10 17 1017.5 1015.5 0.0
29/07:00am 20.9 15.7 0.2 25 9.5 S 17 24 9 13 1017.1 1015.1 0.0
29/06:30am 19.7 14.8 -0.3 26 9.0 S 15 20 8 11 1016.6 1014.6 0.0
29/06:00am 18.8 14.3 -0.6 27 8.6 S 13 19 7 10 1016.3 1014.3 0.0
29/05:30am 18.9 14.8 -0.5 27 8.6 S 11 17 6 9 1016.0 1013.9 0.0
29/05:00am 19.7 14.7 -0.9 25 9.1 SSE 15 19 8 10 1015.4 1013.4 0.0
29/04:30am 19.9 15.3 -0.7 25 9.2 SSE 13 19 7 10 1015.0 1013.0 0.0
29/04:00am 20.2 15.6 -1.0 24 9.4 SSE 13 20 7 11 1014.9 1012.9 0.0
29/03:30am 20.2 15.6 -1.0 24 9.4 S 13 19 7 10 1014.8 1012.8 0.0
29/03:00am 21.2 16.6 -0.7 23 9.9 SSE 13 19 7 10 1014.7 1012.7 0.0
29/02:30am 21.5 16.9 -1.1 22 10.1 SSE 13 19 7 10 1014.8 1012.8 0.0
29/02:00am 21.3 17.0 -1.3 22 10.1 SSE 11 15 6 8 1014.7 1012.7 0.0
29/01:30am 22.0 17.4 -1.3 21 10.5 SSE 13 22 7 12 1014.9 1012.9 0.0
29/01:00am 22.3 18.0 -1.7 20 10.7 SSE 11 17 6 9 1014.8 1012.8 0.0
29/12:30am 22.8 18.5 -2.0 19 11.1 S 11 17 6 9 1014.8 1012.8 0.0
29/12:00am 23.5 18.7 -2.2 18 11.5 S 13 17 7 9 1014.8 1012.8 0.0
 
Date/Time
WST
Temp
°C
App
Temp
°C
Dew
Point
°C
Rel
Hum
%
Delta-T
°C
Wind Press
QNH
hPa
Press
MSL
hPa
Rain since
9am
mm
Dir  Spd
km/h
Gust
km/h
Spd
kts
Gust
kts
28/11:30pm 23.8 19.4 -2.7 17 11.8 S 11 17 6 9 1015.0 1013.0 0.0
28/11:00pm 24.5 20.1 -2.1 17 12.0 S 11 19 6 10 1015.0 1013.0 0.0
28/10:30pm 24.2 20.6 -2.4 17 11.9 SSW 7 11 4 6 1015.0 1013.0 0.0
28/10:00pm 24.6 21.0 -2.0 17 12.0 S 7 11 4 6 1015.0 1013.0 0.0
28/09:30pm 25.4 21.8 -2.2 16 12.5 SSW 7 11 4 6 1014.9 1012.9 0.0
28/09:00pm 26.7 22.0 -2.1 15 13.2 SSW 13 19 7 10 1014.8 1012.8 0.0
28/08:30pm 26.6 22.3 -1.3 16 13.0 SSW 11 15 6 8 1014.6 1012.6 0.0
28/08:00pm 28.0 23.4 -1.0 15 13.7 SSW 13 19 7 10 1014.1 1012.0 0.0
28/07:30pm 28.8 24.0 0.5 16 13.8 SSW 15 20 8 11 1013.8 1011.7 0.0
28/07:00pm 29.5 24.5 1.1 16 14.1 SSW 17 24 9 13 1013.0 1011.0 0.0
28/06:30pm 30.5 25.6 1.9 16 14.5 SW 17 26 9 14 1012.5 1010.5 0.0
28/06:00pm 31.2 26.0 2.4 16 14.8 SW 19 28 10 15 1012.0 1009.9 0.0
28/05:30pm 32.4 26.8 1.5 14 15.7 SW 20 32 11 17 1011.5 1009.4 0.0
28/05:00pm 33.1 26.9 -0.1 12 16.5 SW 22 33 12 18 1011.0 1009.0 0.0
28/04:30pm 33.8 27.9 -0.7 11 17.1 SW 20 37 11 20 1010.9 1008.9 0.0
28/04:00pm 34.3 28.5 -0.4 11 17.3 WSW 20 35 11 19 1010.6 1008.6 0.0
28/03:30pm 35.0 28.7 -1.1 10 17.9 W 22 43 12 23 1010.5 1008.4 0.0
28/03:00pm 34.3 28.3 -3.1 9 17.9 W 19 32 10 17 1010.5 1008.4 0.0
28/02:30pm 35.0 29.1 -2.6 9 18.2 W 19 35 10 19 1010.6 1008.6 0.0
28/02:00pm 34.8 28.7 -2.7 9 18.1 WSW 20 37 11 20 1010.7 1008.7 0.0
28/01:30pm 34.0 27.4 -3.3 9 17.7 W 22 37 12 20 1011.4 1009.3 0.0
28/01:14pm 34.5 27.0 -1.5 10 17.7 WNW 28 46 15 25 1011.5 1009.4 0.0
28/01:00pm 34.5 28.5 -1.5 10 17.7 W 20 37 11 20 1011.7 1009.6 0.0
28/12:30pm 34.2 28.4 -1.7 10 17.5 WNW 19 32 10 17 1012.1 1010.0 0.0
28/12:00pm 33.3 27.4 -2.4 10 17.1 WNW 19 37 10 20 1012.6 1010.6 0.0
28/11:30am 32.2 27.6 -0.8 12 16.1 W 13 22 7 12 1013.0 1011.0 0.0
28/11:00am 32.3 27.7 -0.7 12 16.2 SW 13 20 7 11 1013.7 1011.6 0.0
28/10:30am 31.2 27.1 -0.5 13 15.5 SW 11 19 6 10 1013.9 1011.8 0.0
28/10:00am 30.4 25.9 -0.1 14 14.9 SSW 13 22 7 12 1014.3 1012.3 0.0
28/09:30am 28.7 24.4 1.3 17 13.6 SW 13 22 7 12 1014.3 1012.3 0.0

Other formats

Comma delimited format used in spreadsheet applications
http://www.bom.gov.au/fwo/IDW60801/IDW60801.99736.axf

JavaScript Object Notation format (JSON) in row-major order
http://www.bom.gov.au/fwo/IDW60801/IDW60801.99736.json

Data quality

Most of these data are generated automatically and are frequently updated. Quality checks on data are not normally performed. It is possible for incorrect values to appear. Refer to information at About Latest Weather Observations and please check the disclaimer before using these data.